createdAt,value
2022-09-22T00:02:19.338Z,10.71
2022-09-22T00:04:50.351Z,10.70
2022-09-22T00:07:21.700Z,10.69
2022-09-22T00:09:52.530Z,10.68
2022-09-22T00:12:23.439Z,10.67
2022-09-22T00:14:54.345Z,10.65
2022-09-22T00:17:25.163Z,10.62
2022-09-22T00:19:56.015Z,10.60
2022-09-22T00:22:28.357Z,10.58
2022-09-22T00:25:00.278Z,10.57
2022-09-22T00:27:31.230Z,10.54
2022-09-22T00:30:02.156Z,10.54
2022-09-22T00:32:33.928Z,10.54
2022-09-22T00:35:04.941Z,10.55
2022-09-22T00:37:36.492Z,10.55
2022-09-22T00:40:10.250Z,10.56
2022-09-22T00:42:41.195Z,10.57
2022-09-22T00:45:14.665Z,10.60
2022-09-22T00:47:48.211Z,10.62
2022-09-22T00:50:22.156Z,10.63
2022-09-22T00:52:57.017Z,10.64
2022-09-22T00:55:34.045Z,10.66
2022-09-22T00:58:07.628Z,10.67
2022-09-22T01:00:40.224Z,10.69
2022-09-22T01:03:15.821Z,10.72
2022-09-22T01:05:50.403Z,10.74
2022-09-22T01:08:23.258Z,10.74
2022-09-22T01:10:55.975Z,10.73
2022-09-22T01:13:32.537Z,10.73
2022-09-22T01:16:13.735Z,10.71
2022-09-22T01:18:55.646Z,10.70
2022-09-22T01:21:37.932Z,10.68
2022-09-22T01:24:40.242Z,10.67
2022-09-22T01:27:46.808Z,10.67
2022-09-22T01:30:26.442Z,10.66
2022-09-22T01:33:07.541Z,10.65
2022-09-22T01:35:50.534Z,10.64
2022-09-22T01:38:31.627Z,10.63
2022-09-22T01:41:08.163Z,10.59
2022-09-22T01:43:49.411Z,10.57
2022-09-22T01:46:26.267Z,10.57
2022-09-22T01:49:00.913Z,10.58
2022-09-22T01:51:36.286Z,10.59
2022-09-22T01:54:12.781Z,10.58
2022-09-22T01:56:49.473Z,10.59
2022-09-22T01:59:24.597Z,10.61
2022-09-22T02:02:00.523Z,10.63
2022-09-22T02:04:37.246Z,10.64
2022-09-22T02:07:12.698Z,10.65
2022-09-22T02:09:47.383Z,10.66
2022-09-22T02:12:19.240Z,10.67
2022-09-22T02:14:50.801Z,10.70
2022-09-22T02:17:21.939Z,10.71
2022-09-22T02:19:53.331Z,10.73
2022-09-22T02:22:24.559Z,10.75
2022-09-22T02:24:55.804Z,10.76
2022-09-22T02:27:36.826Z,10.78
2022-09-22T02:30:12.427Z,10.79
2022-09-22T02:32:47.468Z,10.79
2022-09-22T02:35:18.936Z,10.79
2022-09-22T02:37:54.808Z,10.81
2022-09-22T02:40:33.531Z,10.81
2022-09-22T02:43:10.987Z,10.83
2022-09-22T02:45:49.471Z,10.86
2022-09-22T02:48:24.266Z,10.87
2022-09-22T02:50:57.330Z,10.90
2022-09-22T02:53:28.622Z,10.90
2022-09-22T02:55:59.480Z,10.90
2022-09-22T02:58:30.324Z,10.91
2022-09-22T03:01:01.133Z,10.91
2022-09-22T03:03:32.081Z,10.90
2022-09-22T03:06:02.985Z,10.90
2022-09-22T03:08:33.983Z,10.91
2022-09-22T03:11:04.906Z,10.91
2022-09-22T03:13:35.742Z,10.92
2022-09-22T03:16:06.746Z,10.93
2022-09-22T03:18:37.723Z,10.93
2022-09-22T03:21:09.078Z,10.92
2022-09-22T03:23:39.898Z,10.91
2022-09-22T03:26:10.894Z,10.90
2022-09-22T03:28:44.030Z,10.89
2022-09-22T03:31:14.969Z,10.89
2022-09-22T03:33:48.194Z,10.88
2022-09-22T03:36:23.432Z,10.90
2022-09-22T03:38:55.776Z,10.90
2022-09-22T03:41:26.768Z,10.91
2022-09-22T03:43:57.698Z,10.90
2022-09-22T03:46:30.039Z,10.91
2022-09-22T03:49:00.974Z,10.90
2022-09-22T03:51:32.352Z,10.91
2022-09-22T03:54:03.736Z,10.92
2022-09-22T03:56:34.584Z,10.93
2022-09-22T03:59:05.644Z,10.93
2022-09-22T04:01:36.579Z,10.94
2022-09-22T04:04:08.464Z,10.95
2022-09-22T04:06:40.150Z,10.96
2022-09-22T04:09:11.295Z,10.96
2022-09-22T04:11:42.237Z,10.97
2022-09-22T04:14:13.186Z,10.96
2022-09-22T04:16:46.192Z,10.96
2022-09-22T04:19:17.251Z,10.96
2022-09-22T04:21:49.415Z,10.95
2022-09-22T04:24:24.629Z,10.96
2022-09-22T04:27:18.690Z,10.96
2022-09-22T04:29:47.466Z,10.96
2022-09-22T04:32:19.527Z,10.97
2022-09-22T04:34:51.168Z,10.99
2022-09-22T04:37:22.184Z,11.00
2022-09-22T04:39:56.488Z,11.02
2022-09-22T04:42:28.018Z,11.03
2022-09-22T04:45:02.395Z,11.05
2022-09-22T04:47:33.494Z,11.07
2022-09-22T04:50:04.347Z,11.08
2022-09-22T04:52:40.886Z,11.10
2022-09-22T04:55:13.130Z,11.11
2022-09-22T04:57:48.152Z,11.13
2022-09-22T05:00:23.768Z,11.14
2022-09-22T05:02:55.227Z,11.15
2022-09-22T05:05:26.185Z,11.18
2022-09-22T05:07:56.981Z,11.21
2022-09-22T05:10:32.430Z,11.22
2022-09-22T05:13:04.462Z,11.22
2022-09-22T05:15:35.437Z,11.22
2022-09-22T05:18:07.312Z,11.23
2022-09-22T05:20:39.344Z,11.23
2022-09-22T05:23:11.228Z,11.25
2022-09-22T05:25:44.592Z,11.27
2022-09-22T05:28:16.095Z,11.30
2022-09-22T05:30:47.272Z,11.31
2022-09-22T05:33:18.404Z,11.32
2022-09-22T05:35:49.297Z,11.33
2022-09-22T05:38:20.273Z,11.35
2022-09-22T05:40:51.116Z,11.35
2022-09-22T05:43:21.961Z,11.34
2022-09-22T05:45:55.550Z,11.33
2022-09-22T05:48:31.424Z,11.34
2022-09-22T05:51:02.711Z,11.34
2022-09-22T05:53:33.643Z,11.35
2022-09-22T05:56:06.223Z,11.37
2022-09-22T05:58:38.465Z,11.39
2022-09-22T06:01:09.537Z,11.40
2022-09-22T06:03:40.851Z,11.42
2022-09-22T06:06:15.068Z,11.45
2022-09-22T06:08:48.835Z,11.47
2022-09-22T06:11:20.573Z,11.49
2022-09-22T06:13:53.162Z,11.49
2022-09-22T06:16:24.102Z,11.50
2022-09-22T06:18:55.092Z,11.52
2022-09-22T06:21:26.872Z,11.55
2022-09-22T06:23:58.303Z,11.57
2022-09-22T06:26:29.915Z,11.59
2022-09-22T06:29:01.243Z,11.63
2022-09-22T06:31:33.188Z,11.66
2022-09-22T06:34:07.486Z,11.71
2022-09-22T06:36:39.420Z,11.77
2022-09-22T06:39:10.932Z,11.81
2022-09-22T06:41:42.200Z,11.87
2022-09-22T06:44:14.346Z,11.94
2022-09-22T06:46:48.941Z,11.99
2022-09-22T06:49:22.556Z,12.03
2022-09-22T06:51:54.755Z,12.07
2022-09-22T06:54:25.944Z,12.10
2022-09-22T06:56:56.924Z,12.14
2022-09-22T06:59:29.547Z,12.18
2022-09-22T07:02:00.939Z,12.23
2022-09-22T07:04:32.292Z,12.29
2022-09-22T07:07:04.203Z,12.35
2022-09-22T07:09:35.097Z,12.44
2022-09-22T07:12:06.795Z,12.64
2022-09-22T07:14:37.694Z,12.90
2022-09-22T07:17:08.489Z,13.09
2022-09-22T07:19:39.373Z,13.24
2022-09-22T07:22:10.521Z,13.40
2022-09-22T07:24:41.771Z,13.68
2022-09-22T07:27:20.207Z,13.92
2022-09-22T07:29:52.142Z,14.13
2022-09-22T07:32:23.319Z,14.31
2022-09-22T07:34:54.170Z,14.39
2022-09-22T07:37:25.544Z,14.47
2022-09-22T07:39:56.452Z,14.56
2022-09-22T07:42:27.685Z,14.64
2022-09-22T07:45:13.719Z,14.72
2022-09-22T07:48:03.400Z,14.79
2022-09-22T07:50:34.388Z,14.86
2022-09-22T07:53:05.440Z,14.94
2022-09-22T07:55:38.638Z,15.06
2022-09-22T07:58:11.929Z,15.18
2022-09-22T08:00:46.217Z,15.30
2022-09-22T08:03:17.149Z,15.44
2022-09-22T08:05:49.815Z,15.61
2022-09-22T08:08:20.906Z,15.77
2022-09-22T08:10:51.910Z,15.95
2022-09-22T08:13:23.088Z,16.17
2022-09-22T08:15:56.538Z,16.43
2022-09-22T08:18:28.507Z,16.68
2022-09-22T08:21:00.627Z,17.08
2022-09-22T08:23:32.481Z,17.65
2022-09-22T08:26:10.232Z,18.02
2022-09-22T08:28:41.526Z,18.45
2022-09-22T08:31:20.223Z,18.78
2022-09-22T08:33:52.992Z,18.94
2022-09-22T08:36:25.959Z,19.21
2022-09-22T08:38:58.014Z,19.54
2022-09-22T08:41:41.450Z,19.87
2022-09-22T08:44:23.031Z,20.12
2022-09-22T08:46:56.010Z,20.32
2022-09-22T08:49:49.365Z,20.62
2022-09-22T08:52:28.511Z,20.99
2022-09-22T08:55:02.023Z,21.37
2022-09-22T08:57:56.533Z,21.81
2022-09-22T09:00:31.547Z,22.28
2022-09-22T09:03:17.371Z,22.54
2022-09-22T09:06:09.578Z,22.84
2022-09-22T09:08:59.103Z,23.14
2022-09-22T09:11:49.576Z,23.24
2022-09-22T09:14:38.331Z,23.32
2022-09-22T09:17:15.544Z,23.41
2022-09-22T09:19:50.538Z,23.48
2022-09-22T09:22:25.391Z,23.58
2022-09-22T09:27:52.046Z,23.56
2022-09-22T09:30:24.385Z,23.49
2022-09-22T09:32:57.639Z,23.44
2022-09-22T09:35:44.222Z,23.32
2022-09-22T09:38:18.281Z,23.24
2022-09-22T09:40:54.521Z,23.30
2022-09-22T09:43:28.304Z,23.40
2022-09-22T09:46:13.702Z,23.51
2022-09-22T09:49:00.385Z,23.43
2022-09-22T09:51:39.559Z,23.26
2022-09-22T09:54:17.019Z,23.02
2022-09-22T09:57:07.445Z,22.73
2022-09-22T09:59:57.115Z,22.54
2022-09-22T10:02:31.396Z,22.43
2022-09-22T10:05:06.073Z,22.32
2022-09-22T10:07:47.223Z,22.19
2022-09-22T10:10:36.901Z,22.04
2022-09-22T10:13:35.257Z,21.84
2022-09-22T10:16:20.308Z,21.57
2022-09-22T10:18:52.730Z,21.27
2022-09-22T10:21:24.736Z,20.98
2022-09-22T10:23:57.464Z,20.68
2022-09-22T10:26:30.754Z,20.40
2022-09-22T10:29:25.177Z,20.11
2022-09-22T10:32:17.363Z,19.77
2022-09-22T10:34:57.217Z,19.42
2022-09-22T10:37:31.820Z,19.15
2022-09-22T10:40:04.707Z,18.90
2022-09-22T10:42:40.892Z,18.71
2022-09-22T10:45:37.775Z,18.58
2022-09-22T10:48:16.968Z,18.52
2022-09-22T10:50:59.409Z,18.55
2022-09-22T10:53:47.779Z,18.63
2022-09-22T10:56:30.111Z,18.62
2022-09-22T10:59:23.608Z,18.57
2022-09-22T11:05:06.053Z,18.29
2022-09-22T11:08:16.083Z,18.10
2022-09-22T11:11:14.202Z,17.92
2022-09-22T11:13:53.861Z,17.79
2022-09-22T11:16:53.624Z,17.69
2022-09-22T11:19:41.940Z,17.56
2022-09-22T11:22:35.691Z,17.45
2022-09-22T11:25:21.440Z,17.35
2022-09-22T11:28:06.701Z,17.25
2022-09-22T11:30:45.753Z,17.16
2022-09-22T11:33:33.870Z,17.07
2022-09-22T11:36:16.566Z,17.01
2022-09-22T11:39:01.898Z,16.93
2022-09-22T11:41:42.191Z,16.87
2022-09-22T11:44:32.027Z,16.83
2022-09-22T11:47:33.282Z,16.79
2022-09-22T11:50:23.658Z,16.77
2022-09-22T11:53:11.001Z,16.75
2022-09-22T11:55:50.031Z,16.73
2022-09-22T11:58:23.639Z,16.70
2022-09-22T12:00:59.432Z,16.68
2022-09-22T12:03:40.140Z,16.64
2022-09-22T12:06:16.252Z,16.61
2022-09-22T12:11:30.496Z,16.56
2022-09-22T12:14:01.850Z,16.53
2022-09-22T12:16:43.248Z,16.48
2022-09-22T12:19:26.572Z,16.44
2022-09-22T12:22:07.564Z,16.39
2022-09-22T12:24:39.918Z,16.35
2022-09-22T12:27:23.575Z,16.33
2022-09-22T12:30:03.460Z,16.31
2022-09-22T12:32:39.780Z,16.29
2022-09-22T12:35:20.703Z,16.26
2022-09-22T12:37:56.587Z,16.24
2022-09-22T12:40:31.904Z,16.23
2022-09-22T12:43:04.860Z,16.23
2022-09-22T12:45:39.133Z,16.23
2022-09-22T12:48:17.314Z,16.21
2022-09-22T12:50:48.675Z,16.22
2022-09-22T12:53:29.526Z,16.21
2022-09-22T12:56:00.928Z,16.19
2022-09-22T12:58:44.889Z,16.16
2022-09-22T13:01:36.203Z,16.11
2022-09-22T13:04:16.171Z,16.08
2022-09-22T13:07:01.138Z,16.05
2022-09-22T13:09:33.080Z,16.04
2022-09-22T13:12:36.145Z,16.04
2022-09-22T13:15:27.747Z,16.03
2022-09-22T13:18:00.140Z,16.00
2022-09-22T13:20:43.963Z,15.99
2022-09-22T13:23:17.181Z,16.02
2022-09-22T13:25:49.613Z,16.03
2022-09-22T13:28:22.964Z,16.06
2022-09-22T13:31:11.982Z,16.10
2022-09-22T13:33:44.117Z,16.13
2022-09-22T13:36:18.936Z,16.14
2022-09-22T13:38:54.651Z,16.16
2022-09-22T13:41:28.398Z,16.18
2022-09-22T13:44:07.846Z,16.18
2022-09-22T13:46:43.615Z,16.18
2022-09-22T13:49:26.002Z,16.18
2022-09-22T13:52:03.749Z,16.19
2022-09-22T13:54:38.907Z,16.18
2022-09-22T13:57:18.321Z,16.13
2022-09-22T13:59:53.963Z,16.11
2022-09-22T14:02:31.349Z,16.10
2022-09-22T14:05:18.128Z,16.10
2022-09-22T14:08:11.415Z,16.10
2022-09-22T14:10:52.926Z,16.08
2022-09-22T14:13:58.288Z,16.04
2022-09-22T14:16:35.787Z,16.01
2022-09-22T14:19:19.764Z,15.98
2022-09-22T14:21:56.908Z,15.97
2022-09-22T14:24:32.645Z,15.97
2022-09-22T14:27:09.878Z,15.97
2022-09-22T14:29:49.882Z,15.95
2022-09-22T14:32:30.307Z,15.92
2022-09-22T14:35:10.041Z,15.90
2022-09-22T14:37:46.693Z,15.85
2022-09-22T14:40:22.253Z,15.80
2022-09-22T14:43:04.400Z,15.74
2022-09-22T14:46:04.945Z,15.68
2022-09-22T14:48:37.444Z,15.63
2022-09-22T14:51:16.140Z,15.55
2022-09-22T14:53:51.235Z,15.49
2022-09-22T14:56:27.967Z,15.42
2022-09-22T14:59:23.726Z,15.34
2022-09-22T15:02:19.624Z,15.26
2022-09-22T15:04:53.884Z,15.18
2022-09-22T15:07:29.296Z,15.11
2022-09-22T15:10:02.794Z,15.05
2022-09-22T15:12:48.784Z,15.00
2022-09-22T15:15:23.215Z,14.96
2022-09-22T15:18:16.214Z,14.93
2022-09-22T15:20:50.347Z,14.90
2022-09-22T15:23:26.058Z,14.87
2022-09-22T15:25:57.519Z,14.81
2022-09-22T15:28:28.372Z,14.78
2022-09-22T15:31:00.078Z,14.75
2022-09-22T15:33:31.121Z,14.73
2022-09-22T15:36:11.647Z,14.72
2022-09-22T15:38:43.098Z,14.70
2022-09-22T15:41:16.966Z,14.68
2022-09-22T15:43:50.141Z,14.67
2022-09-22T15:46:34.073Z,14.66
2022-09-22T15:49:08.978Z,14.65
2022-09-22T15:51:43.047Z,14.63
2022-09-22T15:54:18.483Z,14.62
2022-09-22T15:56:51.118Z,14.61
2022-09-22T15:59:29.061Z,14.59
2022-09-22T16:02:02.826Z,14.58
2022-09-22T16:04:35.315Z,14.56
2022-09-22T16:07:08.644Z,14.54
2022-09-22T16:09:40.646Z,14.52
2022-09-22T16:12:13.810Z,14.51
2022-09-22T16:14:44.931Z,14.48
2022-09-22T16:17:16.274Z,14.44
2022-09-22T16:19:47.099Z,14.41
2022-09-22T16:22:18.437Z,14.37
2022-09-22T16:24:49.289Z,14.34
2022-09-22T16:27:20.151Z,14.30
2022-09-22T16:29:51.198Z,14.26
2022-09-22T16:32:22.088Z,14.21
2022-09-22T16:34:53.473Z,14.16
2022-09-22T16:37:24.946Z,14.09
2022-09-22T16:39:55.925Z,14.02
2022-09-22T16:42:26.903Z,13.96
2022-09-22T16:44:57.824Z,13.89
2022-09-22T16:47:30.967Z,13.82
2022-09-22T16:50:01.888Z,13.75
2022-09-22T16:52:32.763Z,13.68
2022-09-22T16:55:05.105Z,13.61
2022-09-22T16:57:35.997Z,13.56
2022-09-22T17:00:09.575Z,13.53
2022-09-22T17:02:40.864Z,13.50
2022-09-22T17:05:12.733Z,13.47
2022-09-22T17:07:47.267Z,13.44
2022-09-22T17:10:19.435Z,13.43
2022-09-22T17:12:50.273Z,13.41
2022-09-22T17:15:21.288Z,13.39
2022-09-22T17:17:52.663Z,13.37
2022-09-22T17:20:24.036Z,13.35
2022-09-22T17:22:55.009Z,13.31
2022-09-22T17:25:27.949Z,13.27
2022-09-22T17:27:59.491Z,13.24
2022-09-22T17:30:30.515Z,13.21
2022-09-22T17:33:01.525Z,13.18
2022-09-22T17:35:32.367Z,13.17
2022-09-22T17:38:03.248Z,13.16
2022-09-22T17:40:34.213Z,13.14
2022-09-22T17:43:05.743Z,13.12
2022-09-22T17:45:36.562Z,13.10
2022-09-22T17:48:24.983Z,13.07
2022-09-22T17:51:13.559Z,13.04
2022-09-22T17:54:01.964Z,13.00
2022-09-22T17:56:32.761Z,12.95
2022-09-22T17:59:03.835Z,12.89
2022-09-22T18:01:34.855Z,12.86
2022-09-22T18:04:05.940Z,12.83
2022-09-22T18:06:36.809Z,12.80
2022-09-22T18:09:07.746Z,12.80
2022-09-22T18:11:42.697Z,12.78
2022-09-22T18:14:13.548Z,12.75
2022-09-22T18:16:44.580Z,12.75
2022-09-22T18:19:15.663Z,12.74
2022-09-22T18:21:46.791Z,12.73
2022-09-22T18:24:19.622Z,12.72
2022-09-22T18:26:50.824Z,12.71
2022-09-22T18:29:22.157Z,12.70
2022-09-22T18:31:54.956Z,12.68
2022-09-22T18:34:31.915Z,12.66
2022-09-22T18:37:04.648Z,12.63
2022-09-22T18:39:36.381Z,12.63
2022-09-22T18:42:11.589Z,12.62
2022-09-22T18:44:43.133Z,12.59
2022-09-22T18:47:17.876Z,12.56
2022-09-22T18:49:51.585Z,12.51
2022-09-22T18:52:26.713Z,12.47
2022-09-22T18:54:58.249Z,12.44
2022-09-22T18:57:29.752Z,12.42
2022-09-22T19:00:02.030Z,12.40
2022-09-22T19:02:33.036Z,12.37
2022-09-22T19:05:08.433Z,12.34
2022-09-22T19:07:43.645Z,12.31
2022-09-22T19:10:19.008Z,12.26
2022-09-22T19:12:50.899Z,12.22
2022-09-22T19:15:25.458Z,12.16
2022-09-22T19:17:56.843Z,12.12
2022-09-22T19:20:28.620Z,12.07
2022-09-22T19:23:00.106Z,12.02
2022-09-22T19:25:32.632Z,11.97
2022-09-22T19:28:15.786Z,11.91
2022-09-22T19:30:48.095Z,11.86
2022-09-22T19:33:19.439Z,11.81
2022-09-22T19:35:54.134Z,11.75
2022-09-22T19:38:25.788Z,11.71
2022-09-22T19:40:58.759Z,11.67
2022-09-22T19:43:31.948Z,11.62
2022-09-22T19:46:03.579Z,11.57
2022-09-22T19:48:35.229Z,11.51
2022-09-22T19:51:07.229Z,11.47
2022-09-22T19:53:39.686Z,11.42
2022-09-22T19:56:11.883Z,11.38
2022-09-22T19:58:45.215Z,11.33
2022-09-22T20:01:43.164Z,11.29
2022-09-22T20:04:17.429Z,11.25
2022-09-22T20:06:48.986Z,11.20
2022-09-22T20:09:19.969Z,11.17
2022-09-22T20:11:53.175Z,11.14
2022-09-22T20:14:25.558Z,11.11
2022-09-22T20:16:59.952Z,11.07
2022-09-22T20:19:33.081Z,11.04
2022-09-22T20:22:25.112Z,11.01
2022-09-22T20:24:58.705Z,10.97
2022-09-22T20:27:31.670Z,10.93
2022-09-22T20:30:03.608Z,10.89
2022-09-22T20:32:35.597Z,10.85
2022-09-22T20:35:07.349Z,10.80
2022-09-22T20:37:39.385Z,10.76
2022-09-22T20:40:14.834Z,10.72
2022-09-22T20:42:46.443Z,10.68
2022-09-22T20:45:20.879Z,10.64
2022-09-22T20:47:52.075Z,10.60
2022-09-22T20:50:23.249Z,10.56
2022-09-22T20:52:55.582Z,10.54
2022-09-22T20:55:26.948Z,10.52
2022-09-22T20:57:59.248Z,10.51
2022-09-22T21:00:30.355Z,10.50
2022-09-22T21:03:02.606Z,10.49
2022-09-22T21:05:36.000Z,10.47
2022-09-22T21:08:25.334Z,10.44
2022-09-22T21:10:56.625Z,10.44
2022-09-22T21:13:27.982Z,10.42
2022-09-22T21:16:03.288Z,10.42
2022-09-22T21:18:36.370Z,10.41
2022-09-22T21:21:09.430Z,10.41
2022-09-22T21:23:41.029Z,10.40
2022-09-22T21:26:15.332Z,10.40
2022-09-22T21:28:47.228Z,10.40
2022-09-22T21:31:18.991Z,10.40
2022-09-22T21:33:50.405Z,10.39
2022-09-22T21:36:23.739Z,10.38
2022-09-22T21:38:58.506Z,10.37
2022-09-22T21:41:31.252Z,10.35
2022-09-22T21:44:02.989Z,10.34
2022-09-22T21:46:37.218Z,10.32
2022-09-22T21:49:08.951Z,10.30
2022-09-22T21:51:42.828Z,10.28
2022-09-22T21:54:17.793Z,10.27
2022-09-22T21:56:50.529Z,10.25
2022-09-22T21:59:21.724Z,10.25
2022-09-22T22:01:52.588Z,10.24
2022-09-22T22:04:23.551Z,10.24
2022-09-22T22:06:54.434Z,10.23
2022-09-22T22:09:26.091Z,10.24
2022-09-22T22:11:59.823Z,10.25
2022-09-22T22:14:33.602Z,10.26
2022-09-22T22:17:06.910Z,10.26
2022-09-22T22:19:37.779Z,10.27
2022-09-22T22:22:08.679Z,10.27
2022-09-22T22:24:42.326Z,10.25
2022-09-22T22:27:14.154Z,10.24
2022-09-22T22:29:46.825Z,10.24
2022-09-22T22:32:17.669Z,10.22
2022-09-22T22:34:48.665Z,10.19
2022-09-22T22:37:21.573Z,10.17
2022-09-22T22:39:54.894Z,10.13
2022-09-22T22:42:25.865Z,10.10
2022-09-22T22:44:56.888Z,10.08
2022-09-22T22:47:27.768Z,10.06
2022-09-22T22:49:58.653Z,10.04
2022-09-22T22:52:29.562Z,10.02
2022-09-22T22:55:00.495Z,9.98
2022-09-22T22:57:31.847Z,9.95
2022-09-22T23:00:02.998Z,9.92
2022-09-22T23:02:33.716Z,9.88
2022-09-22T23:05:05.001Z,9.84
2022-09-22T23:07:35.879Z,9.81
2022-09-22T23:10:07.966Z,9.79
2022-09-22T23:12:40.400Z,9.76
2022-09-22T23:15:12.528Z,9.73
2022-09-22T23:17:43.437Z,9.70
2022-09-22T23:20:15.714Z,9.67
2022-09-22T23:22:46.898Z,9.63
2022-09-22T23:25:17.979Z,9.60
2022-09-22T23:27:50.006Z,9.56
2022-09-22T23:30:21.050Z,9.52
2022-09-22T23:32:52.024Z,9.48
2022-09-22T23:35:22.906Z,9.44
2022-09-22T23:37:53.751Z,9.41
2022-09-22T23:40:24.751Z,9.37
2022-09-22T23:42:55.670Z,9.34
2022-09-22T23:45:26.653Z,9.31
2022-09-22T23:47:57.914Z,9.26
2022-09-22T23:50:28.780Z,9.22
2022-09-22T23:52:59.760Z,9.19
2022-09-22T23:55:30.618Z,9.16
2022-09-22T23:58:01.516Z,9.13
